Time;durP1;ratioP1;P1;durP2;ratioP2;P2;SDS_P1;SDS_P2;PMS_P1;PMS_P2;Temp;Humidity;BMP_temperature;BMP_pressure;BME280_temperature;BME280_humidity;BME280_pressure;Samples;Min_cycle;Max_cycle;Signal;HPM_P1;HPM_P2
2023/12/21 00:00:43;;;;;;;;;;;7.20;33.60;;;;;;4983363;28;20263;-80
2023/12/21 00:12:48;;;;;;;;;;;7.40;28.00;;;;;;4997925;28;19968;-80
2023/12/21 00:15:30;;;;;;;;;;;7.50;27.40;;;;;;5001640;28;19952;-80
2023/12/21 00:18:00;;;;;;;;;;;7.30;25.50;;;;;;5013030;28;19916;-80
2023/12/21 00:20:26;;;;;;;;;;;7.40;26.10;;;;;;5000239;28;20001;-71
2023/12/21 00:22:51;;;;;;;;;;;7.30;33.40;;;;;;4998641;28;20021;-72
2023/12/21 00:25:17;;;;;;;;;;;7.30;37.40;;;;;;4999399;28;19926;-72
2023/12/21 00:27:42;;;;;;;;;;;7.40;37.50;;;;;;5001036;28;19918;-72
2023/12/21 00:30:12;;;;;;;;;;;7.40;37.50;;;;;;4996299;28;19953;-72
2023/12/21 00:32:38;;;;;;;;;;;7.30;37.40;;;;;;5001322;28;20000;-72
2023/12/21 00:38:30;;;;;;;;;;;7.30;37.40;;;;;;4997184;28;19916;-80
2023/12/21 00:41:30;;;;;;;;;;;7.30;37.40;;;;;;4990360;28;20281;-80
2023/12/21 00:44:00;;;;;;;;;;;7.30;37.30;;;;;;4997622;28;19924;-80
2023/12/21 00:46:30;;;;;;;;;;;7.40;37.50;;;;;;4996034;28;20028;-80
2023/12/21 00:49:00;;;;;;;;;;;7.40;37.50;;;;;;4997296;28;20004;-80
2023/12/21 00:51:30;;;;;;;;;;;7.30;37.40;;;;;;4985315;28;19916;-80
2023/12/21 00:54:00;;;;;;;;;;;7.30;37.40;;;;;;5006065;28;19921;-80
2023/12/21 00:57:00;;;;;;;;;;;7.40;37.50;;;;;;4980564;28;19914;-81
2023/12/21 00:59:30;;;;;;;;;;;7.40;37.50;;;;;;4977819;28;19960;-81
2023/12/21 01:02:02;;;;;;;;;;;7.40;37.50;;;;;;4987181;28;19917;-80
2023/12/21 01:04:54;;;;;;;;;;;7.40;37.50;;;;;;4996998;28;20277;-81
2023/12/21 01:07:30;;;;;;;;;;;7.30;37.30;;;;;;5005722;28;19922;-80
2023/12/21 01:10:00;;;;;;;;;;;7.30;37.40;;;;;;4997771;28;19949;-80
2023/12/21 01:13:00;;;;;;;;;;;7.30;37.40;;;;;;5000428;28;19921;-80
2023/12/21 01:15:30;;;;;;;;;;;7.30;37.30;;;;;;4984933;28;20280;-80
2023/12/21 01:18:00;;;;;;;;;;;7.30;37.30;;;;;;5004932;28;19914;-81
2023/12/21 01:20:30;;;;;;;;;;;7.30;37.40;;;;;;5011052;28;19964;-80
2023/12/21 01:26:00;;;;;;;;;;;7.30;37.40;;;;;;4991675;28;19921;-80
2023/12/21 01:29:00;;;;;;;;;;;7.30;37.40;;;;;;4983772;28;19919;-80
2023/12/21 01:31:30;;;;;;;;;;;7.30;37.40;;;;;;4985213;28;19968;-80
2023/12/21 01:34:01;;;;;;;;;;;7.40;37.40;;;;;;4987981;28;19913;-79
2023/12/21 01:37:00;;;;;;;;;;;7.40;37.40;;;;;;4988298;28;20005;-79
2023/12/21 01:39:30;;;;;;;;;;;7.40;37.40;;;;;;4983946;28;19949;-80
2023/12/21 01:42:06;;;;;;;;;;;7.50;37.50;;;;;;4996326;28;19914;-80
2023/12/21 01:48:01;;;;;;;;;;;7.40;37.50;;;;;;5007498;28;19960;-80
2023/12/21 01:50:30;;;;;;;;;;;7.40;37.50;;;;;;4992058;28;19917;-80
2023/12/21 01:53:00;;;;;;;;;;;7.40;37.50;;;;;;4988369;28;19914;-80
2023/12/21 01:55:30;;;;;;;;;;;7.40;37.50;;;;;;4979233;28;19914;-80
2023/12/21 02:01:01;;;;;;;;;;;7.40;37.50;;;;;;4993129;28;19925;-80
2023/12/21 02:03:30;;;;;;;;;;;7.50;37.50;;;;;;4995990;28;19918;-80
2023/12/21 02:06:00;;;;;;;;;;;7.50;37.50;;;;;;4995730;28;20289;-79
2023/12/21 02:08:30;;;;;;;;;;;7.50;37.50;;;;;;4995885;28;20369;-80
2023/12/21 02:11:04;;;;;;;;;;;7.50;37.50;;;;;;4999146;28;19909;-80
2023/12/21 02:14:00;;;;;;;;;;;7.50;37.50;;;;;;5008104;28;19910;-80
2023/12/21 02:17:00;;;;;;;;;;;7.60;37.60;;;;;;5009875;28;19921;-81
2023/12/21 02:22:33;;;;;;;;;;;7.60;37.60;;;;;;5007493;28;19960;-80
2023/12/21 02:25:01;;;;;;;;;;;7.70;37.70;;;;;;5013551;28;19917;-80
2023/12/21 02:27:30;;;;;;;;;;;7.70;37.70;;;;;;5008464;28;19917;-80
2023/12/21 02:29:56;;;;;;;;;;;7.60;37.60;;;;;;4987547;28;20005;-80
2023/12/21 02:35:30;;;;;;;;;;;7.70;37.70;;;;;;4980924;28;19999;-80
2023/12/21 02:38:00;;;;;;;;;;;7.60;37.60;;;;;;4995525;28;19960;-80
2023/12/21 02:40:30;;;;;;;;;;;7.60;37.60;;;;;;4982793;28;19913;-81
2023/12/21 02:43:00;;;;;;;;;;;;;;;;;;5010385;28;19910;-80
2023/12/21 02:46:00;;;;;;;;;;;7.60;37.60;;;;;;5003604;28;19920;-80
2023/12/21 02:48:30;;;;;;;;;;;7.70;37.70;;;;;;4992239;28;19913;-80
2023/12/21 02:50:56;;;;;;;;;;;7.80;37.80;;;;;;4992848;28;19910;-72
2023/12/21 02:53:22;;;;;;;;;;;7.80;37.20;;;;;;4995053;28;19917;-72
2023/12/21 02:55:47;;;;;;;;;;;7.80;37.80;;;;;;4997385;28;19917;-73
2023/12/21 02:58:13;;;;;;;;;;;7.80;37.80;;;;;;4977666;28;19921;-72
2023/12/21 03:00:42;;;;;;;;;;;7.80;37.80;;;;;;4989853;28;19914;-72
2023/12/21 03:03:08;;;;;;;;;;;7.80;37.70;;;;;;4985742;28;19918;-72
2023/12/21 03:05:33;;;;;;;;;;;7.80;37.70;;;;;;4993416;28;20273;-72
2023/12/21 03:08:00;;;;;;;;;;;7.70;37.70;;;;;;5011427;28;19992;-79
2023/12/21 03:10:30;;;;;;;;;;;7.80;37.80;;;;;;5010146;28;19914;-80
2023/12/21 03:13:00;;;;;;;;;;;7.70;37.70;;;;;;4993872;28;19910;-80
2023/12/21 03:16:00;;;;;;;;;;;7.70;37.70;;;;;;4994792;28;19917;-80
2023/12/21 03:19:00;;;;;;;;;;;7.70;37.70;;;;;;4988438;28;19997;-80
2023/12/21 03:21:30;;;;;;;;;;;7.80;37.80;;;;;;4996625;28;19910;-80
2023/12/21 03:24:31;;;;;;;;;;;7.70;37.70;;;;;;4990552;28;19918;-80
2023/12/21 03:26:56;;;;;;;;;;;7.70;37.70;;;;;;4987054;28;20396;-80
2023/12/21 03:29:30;;;;;;;;;;;7.70;37.70;;;;;;4992914;28;19909;-80
2023/12/21 03:32:00;;;;;;;;;;;7.70;37.70;;;;;;4994415;28;20000;-80
2023/12/21 03:34:42;;;;;;;;;;;7.70;37.70;;;;;;4983880;28;20009;-80
2023/12/21 03:37:08;;;;;;;;;;;7.70;37.70;;;;;;5007549;28;19913;-72
2023/12/21 03:39:36;;;;;;;;;;;7.80;37.80;;;;;;4993661;28;20004;-73
2023/12/21 03:42:02;;;;;;;;;;;7.80;37.80;;;;;;4985136;28;19957;-72
2023/12/21 03:44:28;;;;;;;;;;;7.80;37.80;;;;;;4994222;28;19953;-73
2023/12/21 03:47:00;;;;;;;;;;;7.70;37.70;;;;;;4997982;28;19940;-73
2023/12/21 03:49:30;;;;;;;;;;;7.80;37.70;;;;;;5009280;28;19936;-73
2023/12/21 03:52:30;;;;;;;;;;;7.80;37.70;;;;;;5005227;28;20369;-80
2023/12/21 03:55:00;;;;;;;;;;;;;;;;;;4994813;28;19914;-79
2023/12/21 03:58:00;;;;;;;;;;;7.90;37.80;;;;;;5014081;28;19917;-80
2023/12/21 04:01:00;;;;;;;;;;;7.90;37.80;;;;;;4986250;28;19921;-80
2023/12/21 04:03:30;;;;;;;;;;;8.00;38.00;;;;;;4982568;28;19957;-80
2023/12/21 04:09:00;;;;;;;;;;;8.10;38.00;;;;;;5002091;28;20285;-80
2023/12/21 04:11:36;;;;;;;;;;;8.10;38.00;;;;;;4994435;28;19910;-80
2023/12/21 04:14:30;;;;;;;;;;;8.20;38.10;;;;;;4990432;28;19914;-80
2023/12/21 04:17:00;;;;;;;;;;;8.20;29.70;;;;;;4988851;28;19914;-80
2023/12/21 04:19:30;;;;;;;;;;;8.20;27.70;;;;;;4987037;28;19910;-80
2023/12/21 04:22:00;;;;;;;;;;;8.20;25.80;;;;;;4994559;28;19917;-72
2023/12/21 04:24:26;;;;;;;;;;;8.30;24.90;;;;;;4988292;28;20017;-72
2023/12/21 04:26:52;;;;;;;;;;;8.30;21.80;;;;;;4992311;28;19917;-73
2023/12/21 04:29:19;;;;;;;;;;;8.30;22.10;;;;;;4988447;28;20135;-73
2023/12/21 04:31:45;;;;;;;;;;;8.30;21.90;;;;;;4994083;28;19918;-73
2023/12/21 04:34:10;;;;;;;;;;;8.30;20.50;;;;;;4996746;28;19952;-72
2023/12/21 04:36:36;;;;;;;;;;;8.30;21.80;;;;;;4999868;28;19956;-72
2023/12/21 04:42:30;;;;;;;;;;;8.20;21.70;;;;;;4996551;28;19941;-80
2023/12/21 04:45:00;;;;;;;;;;;8.30;20.60;;;;;;4985526;28;19920;-80
2023/12/21 04:47:30;;;;;;;;;;;8.30;19.20;;;;;;4996328;28;19914;-79
2023/12/21 04:50:00;;;;;;;;;;;8.20;19.70;;;;;;4996793;28;19914;-80
2023/12/21 04:52:26;;;;;;;;;;;8.30;22.80;;;;;;4997608;28;19957;-74
2023/12/21 04:54:51;;;;;;;;;;;8.40;20.40;;;;;;4996505;28;19956;-73
2023/12/21 04:57:17;;;;;;;;;;;8.40;18.30;;;;;;5011213;28;19917;-73
2023/12/21 04:59:43;;;;;;;;;;;8.30;16.90;;;;;;5002246;28;19914;-73
2023/12/21 05:02:08;;;;;;;;;;;8.40;17.30;;;;;;4997097;28;19910;-73
2023/12/21 05:04:34;;;;;;;;;;;8.40;16.20;;;;;;4995894;28;19918;-73
2023/12/21 05:07:00;;;;;;;;;;;8.40;14.20;;;;;;4998732;28;19920;-74
2023/12/21 05:09:25;;;;;;;;;;;8.40;14.50;;;;;;5015504;28;19968;-73
2023/12/21 05:11:52;;;;;;;;;;;8.40;16.30;;;;;;4998327;28;19910;-72
2023/12/21 05:14:18;;;;;;;;;;;8.40;14.90;;;;;;5003901;28;20264;-73
2023/12/21 05:16:44;;;;;;;;;;;8.40;15.40;;;;;;4999284;28;19913;-73
2023/12/21 05:19:09;;;;;;;;;;;8.40;15.00;;;;;;4996843;28;19917;-73
2023/12/21 05:21:35;;;;;;;;;;;8.30;14.70;;;;;;4995970;28;19910;-73
2023/12/21 05:24:01;;;;;;;;;;;8.40;14.30;;;;;;4996985;28;19925;-72
2023/12/21 05:26:26;;;;;;;;;;;8.40;14.80;;;;;;4984918;28;20329;-73
2023/12/21 05:29:02;;;;;;;;;;;8.40;15.60;;;;;;4995213;28;19917;-73
2023/12/21 05:31:27;;;;;;;;;;;8.40;16.50;;;;;;4996140;28;19914;-74
2023/12/21 05:37:06;;;;;;;;;;;8.40;17.20;;;;;;4996984;28;19917;-81
2023/12/21 05:39:37;;;;;;;;;;;8.50;13.80;;;;;;4989397;28;19922;-80
2023/12/21 05:47:32;;;;;;;;;;;8.50;13.20;;;;;;4996081;28;20380;-79
2023/12/21 05:53:07;;;;;;;;;;;8.40;14.80;;;;;;4995206;28;19918;-82
2023/12/21 05:55:33;;;;;;;;;;;8.40;17.80;;;;;;5000273;28;20305;-76
2023/12/21 05:58:00;;;;;;;;;;;8.50;16.90;;;;;;4997488;28;19968;-75
2023/12/21 06:00:26;;;;;;;;;;;8.50;16.60;;;;;;4995866;28;19914;-75
2023/12/21 06:02:51;;;;;;;;;;;8.50;14.40;;;;;;4995407;28;19921;-75
2023/12/21 06:05:17;;;;;;;;;;;8.50;15.00;;;;;;4995205;28;19921;-74
2023/12/21 06:07:54;;;;;;;;;;;8.60;14.20;;;;;;5011566;28;19932;-74
2023/12/21 06:10:42;;;;;;;;;;;8.60;12.80;;;;;;5012551;28;19914;-81
2023/12/21 06:13:20;;;;;;;;;;;8.60;13.80;;;;;;4985803;28;19914;-82
2023/12/21 06:22:12;;;;;;;;;;;8.70;9.90;;;;;;4982488;28;19922;-84
2023/12/21 06:25:00;;;;;;;;;;;8.60;10.50;;;;;;4989662;28;19968;-76
2023/12/21 06:27:26;;;;;;;;;;;8.70;9.20;;;;;;4994772;28;19918;-73
2023/12/21 06:29:51;;;;;;;;;;;8.60;9.10;;;;;;4992951;28;19964;-72
2023/12/21 06:32:17;;;;;;;;;;;8.60;10.80;;;;;;4998093;28;19913;-73
2023/12/21 06:34:48;;;;;;;;;;;8.70;9.50;;;;;;4989378;28;19914;-73
2023/12/21 06:37:18;;;;;;;;;;;8.70;9.20;;;;;;4995565;28;19917;-72
2023/12/21 06:40:07;;;;;;;;;;;8.70;9.00;;;;;;5000041;28;19921;-77
2023/12/21 06:51:42;;;;;;;;;;;8.70;9.30;;;;;;4989040;28;20297;-79
2023/12/21 06:54:08;;;;;;;;;;;8.70;10.30;;;;;;4995549;28;19983;-74
2023/12/21 06:56:48;;;;;;;;;;;8.70;9.80;;;;;;4997567;28;20352;-77
2023/12/21 06:59:14;;;;;;;;;;;8.70;10.70;;;;;;4986566;28;19918;-73
2023/12/21 07:01:40;;;;;;;;;;;8.70;12.00;;;;;;4998169;28;19914;-73
2023/12/21 07:04:08;;;;;;;;;;;8.70;11.70;;;;;;5001057;28;19918;-74
2023/12/21 07:06:36;;;;;;;;;;;8.70;11.70;;;;;;4994862;28;19914;-73
2023/12/21 07:09:02;;;;;;;;;;;8.70;11.10;;;;;;4993256;28;19921;-75
2023/12/21 07:11:27;;;;;;;;;;;8.80;11.90;;;;;;4990195;28;19910;-74
2023/12/21 07:13:54;;;;;;;;;;;8.80;10.00;;;;;;4992784;28;19914;-74
2023/12/21 07:16:19;;;;;;;;;;;8.70;9.20;;;;;;4995388;28;19921;-74
2023/12/21 07:18:50;;;;;;;;;;;8.70;10.70;;;;;;4995179;28;20277;-74
2023/12/21 07:21:16;;;;;;;;;;;8.70;10.00;;;;;;4994517;28;19932;-73
2023/12/21 07:23:41;;;;;;;;;;;8.80;10.20;;;;;;4995540;28;20374;-73
2023/12/21 07:26:09;;;;;;;;;;;8.80;9.70;;;;;;4985305;28;19964;-81
2023/12/21 07:40:54;;;;;;;;;;;8.80;9.70;;;;;;4994340;28;19916;-73
2023/12/21 07:43:21;;;;;;;;;;;8.80;9.50;;;;;;4995934;28;19953;-73
2023/12/21 07:45:54;;;;;;;;;;;8.80;9.90;;;;;;4993632;28;19922;-74
2023/12/21 07:48:20;;;;;;;;;;;8.80;9.60;;;;;;5002231;28;19914;-74
2023/12/21 07:50:48;;;;;;;;;;;8.90;9.10;;;;;;5004510;28;19921;-74
2023/12/21 07:53:14;;;;;;;;;;;8.90;9.10;;;;;;4994402;28;19920;-73
2023/12/21 07:55:42;;;;;;;;;;;8.90;8.50;;;;;;4996230;28;20608;-81
2023/12/21 07:58:36;;;;;;;;;;;8.90;6.60;;;;;;5013179;28;19918;-81
2023/12/21 08:01:02;;;;;;;;;;;8.90;8.20;;;;;;5001804;28;20362;-81
2023/12/21 08:06:31;;;;;;;;;;;8.90;8.30;;;;;;5005968;28;20017;-85
2023/12/21 08:11:59;;;;;;;;;;;8.80;10.10;;;;;;4991753;28;20000;-75
2023/12/21 08:14:35;;;;;;;;;;;8.80;12.40;;;;;;5002293;28;19949;-75
2023/12/21 08:17:03;;;;;;;;;;;8.90;13.60;;;;;;5015844;28;19916;-75
2023/12/21 08:19:31;;;;;;;;;;;8.80;17.00;;;;;;5004892;28;20004;-74
2023/12/21 08:21:57;;;;;;;;;;;8.70;19.40;;;;;;5002373;28;19913;-74
2023/12/21 08:24:22;;;;;;;;;;;8.70;21.30;;;;;;5004936;28;19917;-75
2023/12/21 08:26:48;;;;;;;;;;;8.70;20.90;;;;;;5016029;28;20003;-75
2023/12/21 08:29:13;;;;;;;;;;;8.70;20.20;;;;;;4997678;28;19918;-74
2023/12/21 08:31:42;;;;;;;;;;;8.80;19.80;;;;;;5003742;28;19910;-75
2023/12/21 08:34:30;;;;;;;;;;;8.80;18.80;;;;;;4997814;28;19910;-76
2023/12/21 08:37:00;;;;;;;;;;;;;;;;;;4988551;28;19976;-75
2023/12/21 08:39:30;;;;;;;;;;;8.80;21.60;;;;;;5005762;28;19910;-75
2023/12/21 08:42:01;;;;;;;;;;;8.80;24.10;;;;;;4997530;28;19909;-75
2023/12/21 08:44:27;;;;;;;;;;;8.80;24.70;;;;;;4997624;28;19918;-74
2023/12/21 08:46:54;;;;;;;;;;;8.70;32.60;;;;;;4997541;28;19911;-75
2023/12/21 08:49:20;;;;;;;;;;;8.70;38.60;;;;;;4997634;28;19953;-74
2023/12/21 08:52:01;;;;;;;;;;;8.60;38.50;;;;;;4992627;28;19917;-75
2023/12/21 08:54:30;;;;;;;;;;;8.50;38.30;;;;;;4998249;28;19914;-75
2023/12/21 08:57:00;;;;;;;;;;;8.60;38.40;;;;;;5008328;28;19921;-80
2023/12/21 09:00:03;;;;;;;;;;;8.60;38.50;;;;;;4994416;28;19910;-80
2023/12/21 09:02:30;;;;;;;;;;;8.60;38.40;;;;;;4979575;28;19917;-80
2023/12/21 09:05:01;;;;;;;;;;;8.60;41.70;;;;;;4984794;28;19914;-80
2023/12/21 09:07:31;;;;;;;;;;;8.50;38.40;;;;;;5005593;28;19960;-80
2023/12/21 09:10:00;;;;;;;;;;;8.50;41.70;;;;;;4995236;28;19918;-80
2023/12/21 09:12:30;;;;;;;;;;;8.40;38.30;;;;;;5009457;28;19910;-75
2023/12/21 09:15:08;;;;;;;;;;;8.50;38.40;;;;;;5005994;28;19909;-74
2023/12/21 09:17:48;;;;;;;;;;;8.60;38.50;;;;;;5001310;28;20000;-75
2023/12/21 09:20:14;;;;;;;;;;;8.60;38.50;;;;;;5002984;28;19910;-74
2023/12/21 09:22:42;;;;;;;;;;;8.60;38.40;;;;;;4996240;28;19984;-75
2023/12/21 09:25:08;;;;;;;;;;;8.60;38.40;;;;;;4996573;28;19914;-75
2023/12/21 09:27:34;;;;;;;;;;;8.60;42.20;;;;;;4996962;28;19941;-75
2023/12/21 09:30:00;;;;;;;;;;;8.60;38.40;;;;;;4982483;28;19917;-75
2023/12/21 09:32:31;;;;;;;;;;;8.70;38.50;;;;;;4977476;28;19911;-75
2023/12/21 09:34:56;;;;;;;;;;;8.80;38.60;;;;;;4984148;28;20000;-75
2023/12/21 09:37:22;;;;;;;;;;;8.90;38.70;;;;;;4995934;28;19949;-75
2023/12/21 09:40:00;;;;;;;;;;;8.90;38.70;;;;;;4996471;28;19921;-75
2023/12/21 09:42:26;;;;;;;;;;;9.00;38.70;;;;;;4997189;28;19928;-75
2023/12/21 09:44:53;;;;;;;;;;;9.10;38.80;;;;;;4983507;28;19914;-75
2023/12/21 09:47:19;;;;;;;;;;;9.10;42.20;;;;;;4996683;28;20258;-75
2023/12/21 09:49:50;;;;;;;;;;;9.20;37.50;;;;;;4998492;28;19944;-74
2023/12/21 09:52:17;;;;;;;;;;;9.20;26.40;;;;;;5005391;28;19910;-75
2023/12/21 09:55:01;;;;;;;;;;;9.20;27.60;;;;;;5000693;28;19955;-75
2023/12/21 09:58:00;;;;;;;;;;;9.30;21.70;;;;;;5002971;28;19921;-80
2023/12/21 10:00:31;;;;;;;;;;;9.40;16.40;;;;;;4987819;28;19910;-80
2023/12/21 10:03:32;;;;;;;;;;;9.50;13.70;;;;;;4995425;28;19914;-80
2023/12/21 10:06:02;;;;;;;;;;;9.50;10.20;;;;;;4996224;28;20357;-80
2023/12/21 10:08:33;;;;;;;;;;;9.50;9.20;;;;;;4995792;28;19964;-79
2023/12/21 10:11:03;;;;;;;;;;;9.50;7.40;;;;;;4991828;28;19914;-75
2023/12/21 10:13:28;;;;;;;;;;;9.60;8.50;;;;;;4987361;28;19914;-75
2023/12/21 10:15:58;;;;;;;;;;;9.60;6.30;;;;;;4995758;28;19909;-75
2023/12/21 10:18:26;;;;;;;;;;;9.60;9.30;;;;;;4994869;28;19917;-75
2023/12/21 10:20:55;;;;;;;;;;;9.50;9.30;;;;;;5005711;28;19956;-75
2023/12/21 10:23:25;;;;;;;;;;;9.50;9.10;;;;;;4988127;28;19921;-75
2023/12/21 10:25:52;;;;;;;;;;;9.50;9.10;;;;;;4992216;28;19917;-75
2023/12/21 10:28:21;;;;;;;;;;;9.50;9.70;;;;;;4995776;28;20389;-75
2023/12/21 10:31:04;;;;;;;;;;;9.60;13.20;;;;;;4994091;28;19920;-75
2023/12/21 10:33:31;;;;;;;;;;;9.60;13.60;;;;;;4982649;28;19910;-75
2023/12/21 10:36:00;;;;;;;;;;;9.50;22.40;;;;;;4987494;28;19910;-75
2023/12/21 10:38:31;;;;;;;;;;;9.50;25.90;;;;;;4978724;28;20358;-75
2023/12/21 10:41:05;;;;;;;;;;;9.60;28.50;;;;;;4992689;28;20321;-75
2023/12/21 10:44:00;;;;;;;;;;;9.50;32.20;;;;;;4989218;28;19966;-80
2023/12/21 10:46:31;;;;;;;;;;;9.60;39.30;;;;;;4995737;28;19920;-80
2023/12/21 10:49:01;;;;;;;;;;;9.60;39.30;;;;;;4998046;28;20377;-81
2023/12/21 10:54:32;;;;;;;;;;;9.50;39.20;;;;;;4980215;28;20395;-81
2023/12/21 10:57:00;;;;;;;;;;;9.50;39.20;;;;;;4995396;28;19914;-80
2023/12/21 10:59:32;;;;;;;;;;;9.60;39.30;;;;;;4992641;28;19913;-80
2023/12/21 11:02:00;;;;;;;;;;;;;;;;;;5009730;28;19914;-80
2023/12/21 11:04:31;;;;;;;;;;;9.60;39.30;;;;;;4995006;28;19918;-80
2023/12/21 11:07:30;;;;;;;;;;;9.60;39.30;;;;;;4993738;28;19961;-81
2023/12/21 11:10:02;;;;;;;;;;;9.50;39.30;;;;;;4994737;28;19941;-81
2023/12/21 11:12:30;;;;;;;;;;;9.50;46.70;;;;;;4995362;28;20011;-78
2023/12/21 11:15:01;;;;;;;;;;;9.50;50.80;;;;;;4980162;28;19910;-81
2023/12/21 11:17:32;;;;;;;;;;;9.50;52.90;;;;;;4999948;28;19918;-81
2023/12/21 11:20:02;;;;;;;;;;;9.50;57.60;;;;;;4990302;28;19945;-81
2023/12/21 11:22:32;;;;;;;;;;;9.50;61.60;;;;;;5009809;28;19914;-81
2023/12/21 11:25:04;;;;;;;;;;;9.50;62.00;;;;;;5009634;28;19914;-81
2023/12/21 11:28:02;;;;;;;;;;;9.50;63.10;;;;;;4994692;28;19914;-79
2023/12/21 11:30:32;;;;;;;;;;;9.50;63.30;;;;;;4977124;28;19922;-81
2023/12/21 11:33:30;;;;;;;;;;;9.60;65.70;;;;;;4985177;28;19916;-81
2023/12/21 11:36:30;;;;;;;;;;;9.60;64.60;;;;;;5008977;28;19928;-80
2023/12/21 11:39:30;;;;;;;;;;;9.60;67.70;;;;;;4992757;28;19968;-80
2023/12/21 11:42:00;;;;;;;;;;;9.60;64.90;;;;;;4981833;28;19910;-77
2023/12/21 11:44:37;;;;;;;;;;;9.60;62.70;;;;;;5002186;28;19913;-74
2023/12/21 11:47:07;;;;;;;;;;;9.60;62.80;;;;;;4997579;28;19910;-75
2023/12/21 11:49:54;;;;;;;;;;;9.70;61.10;;;;;;5010453;28;19913;-75
2023/12/21 11:52:24;;;;;;;;;;;9.70;60.30;;;;;;4993627;28;19999;-75
2023/12/21 11:54:49;;;;;;;;;;;9.60;61.20;;;;;;5007188;28;19960;-75
2023/12/21 11:57:31;;;;;;;;;;;9.70;61.50;;;;;;5000918;28;19925;-81
2023/12/21 12:00:32;;;;;;;;;;;9.60;62.80;;;;;;5022300;28;19918;-76
2023/12/21 12:03:00;;;;;;;;;;;9.70;66.80;;;;;;4980817;28;19909;-80
2023/12/21 12:05:31;;;;;;;;;;;9.70;67.00;;;;;;4994587;28;19914;-80
2023/12/21 12:08:00;;;;;;;;;;;9.70;68.10;;;;;;4987770;28;19909;-79
2023/12/21 12:13:31;;;;;;;;;;;9.70;67.70;;;;;;4994736;28;20007;-81
2023/12/21 12:16:00;;;;;;;;;;;9.70;70.30;;;;;;4992757;28;19916;-81
2023/12/21 12:19:00;;;;;;;;;;;9.60;71.80;;;;;;4993956;28;19960;-81
2023/12/21 12:21:31;;;;;;;;;;;9.60;75.00;;;;;;5004248;28;19913;-81
2023/12/21 12:24:01;;;;;;;;;;;9.60;76.60;;;;;;4995457;28;19921;-84
2023/12/21 12:26:31;;;;;;;;;;;9.60;80.00;;;;;;4994049;28;19910;-82
2023/12/21 12:28:56;;;;;;;;;;;9.70;78.60;;;;;;4998493;28;20009;-73
2023/12/21 12:31:25;;;;;;;;;;;9.70;77.80;;;;;;4991173;28;20344;-78
2023/12/21 12:33:50;;;;;;;;;;;9.70;78.20;;;;;;4993765;28;19910;-71
2023/12/21 12:36:19;;;;;;;;;;;9.70;78.80;;;;;;4992789;28;19996;-69
2023/12/21 12:38:49;;;;;;;;;;;9.80;79.40;;;;;;4999582;28;19937;-72
2023/12/21 12:44:18;;;;;;;;;;;9.80;82.20;;;;;;4994480;28;19928;-69
2023/12/21 12:46:44;;;;;;;;;;;;;;;;;;4996904;28;20004;-70
2023/12/21 12:49:11;;;;;;;;;;;9.80;82.40;;;;;;4997418;28;19925;-69
2023/12/21 12:51:36;;;;;;;0.63;0.40;;;9.80;81.60;;;;;;4996050;28;20952;-84
2023/12/21 12:54:31;;;;;;;1.43;0.50;;;9.80;82.30;;;;;;4988793;28;20188;-83
2023/12/21 13:01:01;;;;;;;1.50;0.45;;;9.80;80.70;;;;;;4997166;28;20396;-81
2023/12/21 13:03:43;;;;;;;3.00;0.40;;;;;;;;;;5009323;28;20601;-78
2023/12/21 13:07:00;;;;;;;0.60;0.60;;;9.90;82.30;;;;;;5011828;28;20535;-78
2023/12/21 13:09:27;;;;;;;2.63;0.50;;;9.90;82.90;;;;;;4985625;28;20458;-81
2023/12/21 13:12:01;;;;;;;0.50;0.40;;;9.90;82.60;;;;;;4995830;28;20788;-82
2023/12/21 13:14:31;;;;;;;;;;;9.90;85.80;;;;;;5001935;28;20393;-81
2023/12/21 13:17:00;;;;;;;;;;;10.00;84.70;;;;;;5004348;28;20277;-77
2023/12/21 13:20:00;;;;;;;;;;;9.90;84.90;;;;;;5016492;28;19912;-79
2023/12/21 13:22:30;;;;;;;;;;;;;;;;;;4984687;28;20008;-82
2023/12/21 13:25:01;;;;;;;;;;;10.00;87.20;;;;;;5004104;28;19988;-79
2023/12/21 13:27:31;;;;;;;;;;;10.00;85.80;;;;;;5012206;28;19905;-80
2023/12/21 13:30:01;;;;;;;;;;;;;;;;;;5001448;28;20599;-83
2023/12/21 13:33:00;;;;;;;;;;;10.10;81.70;;;;;;4994601;28;19914;-83
2023/12/21 13:35:31;;;;;;;;;;;10.10;82.10;;;;;;4996370;28;19910;-75
2023/12/21 13:37:56;;;;;;;;;;;10.10;80.80;;;;;;4996669;28;19906;-75
2023/12/21 13:40:27;;;;;;;;;;;10.10;79.70;;;;;;4996736;28;19956;-73
2023/12/21 13:42:55;;;;;;;;;;;10.10;81.40;;;;;;4998596;28;19910;-74
2023/12/21 13:45:20;;;;;;;;;;;10.10;82.70;;;;;;4996813;28;20273;-75
2023/12/21 13:47:46;;;;;;;;;;;10.10;83.60;;;;;;4996179;28;19906;-74
2023/12/21 13:50:25;;;;;;;;;;;10.10;82.80;;;;;;4996561;28;19992;-75
2023/12/21 13:53:12;;;;;;;;;;;10.10;85.70;;;;;;4996715;28;20004;-74
2023/12/21 13:55:43;;;;;;;;;;;10.10;89.10;;;;;;4996014;28;19910;-75
2023/12/21 13:58:08;;;;;;;;;;;10.00;87.60;;;;;;4984913;28;19920;-74
2023/12/21 14:00:34;;;;;;;;;;;10.10;87.90;;;;;;4997044;28;19921;-75
2023/12/21 14:03:01;;;;;;;;;;;10.00;87.90;;;;;;4995880;28;19949;-75
2023/12/21 14:05:37;;;;;;;;;;;10.10;88.70;;;;;;4996040;28;19910;-75
2023/12/21 14:08:14;;;;;;;;;;;10.10;89.00;;;;;;4996319;28;19905;-75
2023/12/21 14:10:55;;;;;;;;;;;10.00;91.00;;;;;;4999087;28;20401;-75
2023/12/21 14:13:20;;;;;;;;;;;10.10;91.40;;;;;;4996242;28;20453;-73
2023/12/21 14:15:46;;;;;;;;;;;10.00;90.90;;;;;;5008225;28;19905;-73
2023/12/21 14:18:25;;;;;;;1.50;0.50;;;10.10;91.40;;;;;;4994689;28;20405;-73
2023/12/21 14:20:51;;;;;;;;;;;;;;;;;;4991054;28;20266;-73
2023/12/21 14:23:25;;;;;;;;;;;10.00;90.80;;;;;;4995568;28;19917;-73
2023/12/21 14:25:51;;;;;;;;;;;10.00;91.00;;;;;;4992313;28;19910;-72
2023/12/21 14:28:16;;;;;;;;;;;9.90;91.70;;;;;;4995106;28;19906;-74
2023/12/21 14:30:42;;;;;;;;;;;9.90;92.80;;;;;;4996968;28;19918;-72
2023/12/21 14:33:13;;;;;;;;;;;9.90;93.70;;;;;;4999171;28;19909;-73
2023/12/21 14:35:38;;;;;;;;;;;9.90;93.90;;;;;;4995020;28;19913;-72
2023/12/21 14:38:04;;;;;;;;;;;9.90;93.40;;;;;;4994611;28;19906;-73
2023/12/21 14:40:30;;;;;;;;;;;9.90;93.30;;;;;;4994829;28;19953;-74
2023/12/21 14:42:55;;;;;;;;;;;10.00;92.40;;;;;;4990048;28;20382;-75
2023/12/21 14:45:31;;;;;;;;;;;10.00;91.80;;;;;;4995939;28;19913;-80
2023/12/21 14:48:01;;;;;;;;;;;10.00;91.80;;;;;;4994360;28;19909;-81
2023/12/21 14:50:31;;;;;;;;;;;;;;;;;;4997479;28;19906;-79
2023/12/21 14:53:01;;;;;;;;;;;10.10;91.20;;;;;;4993533;28;19906;-82
2023/12/21 14:55:40;;;;;;;;;;;10.10;90.40;;;;;;4995632;28;20353;-82
2023/12/21 14:58:30;;;;;;;;;;;10.10;89.70;;;;;;4995854;28;19967;-82
2023/12/21 15:00:56;;;;;;;;;;;10.10;88.40;;;;;;5006260;28;19918;-72
2023/12/21 15:03:22;;;;;;;;;;;10.20;86.10;;;;;;4994192;28;20258;-70
2023/12/21 15:05:48;;;;;;;;;;;10.10;83.20;;;;;;4998252;28;19925;-71
2023/12/21 15:08:14;;;;;;;;;;;10.20;78.30;;;;;;4984854;28;19958;-71
2023/12/21 15:10:39;;;;;;;;;;;10.20;73.00;;;;;;4996305;28;19906;-72
2023/12/21 15:13:06;;;;;;;;;;;10.30;66.00;;;;;;4989198;28;19921;-71
2023/12/21 15:16:01;;;;;;;;;;;10.30;57.90;;;;;;4995394;28;19961;-78
2023/12/21 15:18:31;;;;;;;;;;;10.30;47.50;;;;;;4985498;28;20004;-78
2023/12/21 15:21:01;;;;;;;;;;;10.40;39.00;;;;;;4997746;28;19909;-81
2023/12/21 15:23:31;;;;;;;;;;;10.50;39.10;;;;;;4994578;28;20416;-78
2023/12/21 15:29:01;;;;;;;;;;;10.60;39.20;;;;;;4996599;28;19920;-77
2023/12/21 15:31:26;;;;;;;;;;;10.60;39.20;;;;;;4997703;28;20040;-72
2023/12/21 15:33:52;;;;;;;;;;;10.60;32.20;;;;;;4994217;28;20392;-72
2023/12/21 15:36:19;;;;;;;;;;;10.60;30.20;;;;;;4998327;28;19976;-73
2023/12/21 15:38:44;;;;;;;;;;;10.60;33.10;;;;;;5021356;28;20293;-73
2023/12/21 15:41:21;;;;;;;;;;;10.50;26.30;;;;;;4993708;28;19913;-73
2023/12/21 15:43:55;;;;;;;;;;;10.50;26.50;;;;;;4986414;28;20320;-73
2023/12/21 15:46:25;;;;;;;;;;;10.60;22.50;;;;;;4991906;28;19916;-80
2023/12/21 15:49:01;;;;;;;;;;;10.50;21.90;;;;;;5008680;28;20008;-80
2023/12/21 15:51:31;;;;;;;;;;;10.50;23.50;;;;;;4994524;28;19906;-81
2023/12/21 15:54:01;;;;;;;;;;;10.50;21.10;;;;;;5000945;28;19913;-80
2023/12/21 15:56:31;;;;;;;;;;;10.50;20.10;;;;;;4994607;28;19913;-81
2023/12/21 15:59:01;;;;;;;;;;;10.50;22.70;;;;;;4975249;28;20379;-81
2023/12/21 16:01:31;;;;;;;;;;;10.40;14.80;;;;;;5000445;28;19905;-79
2023/12/21 16:04:01;;;;;;;;;;;10.50;15.90;;;;;;5002643;28;19963;-80
2023/12/21 16:06:31;;;;;;;;;;;10.50;6.90;;;;;;4993680;28;20008;-81
2023/12/21 16:09:01;;;;;;;;;;;10.50;2.00;;;;;;4994287;28;19910;-80
2023/12/21 16:11:31;;;;;;;;;;;10.50;1.30;;;;;;5003078;28;19906;-80
2023/12/21 16:14:31;;;;;;;;;;;10.50;1.00;;;;;;4979683;28;19906;-81
2023/12/21 16:16:56;;;;;;;;;;;10.60;1.00;;;;;;4999171;28;19909;-71
2023/12/21 16:19:22;;;;;;;;;;;10.60;1.00;;;;;;4998105;28;19910;-71
2023/12/21 16:21:47;;;;;;;;;;;10.70;1.00;;;;;;4995671;28;19932;-72
2023/12/21 16:24:13;;;;;;;;;;;10.70;1.00;;;;;;4997059;28;19976;-72
2023/12/21 16:26:40;;;;;;;;;;;10.70;1.00;;;;;;5004146;28;19905;-72
2023/12/21 16:29:05;;;;;;;;;;;10.80;1.00;;;;;;4991813;28;19932;-72
2023/12/21 16:31:43;;;;;;;;;;;10.80;1.00;;;;;;4998074;28;20250;-80
2023/12/21 16:34:31;;;;;;;;;;;10.80;1.00;;;;;;4986297;28;19905;-80
2023/12/21 16:37:01;;;;;;;;;;;10.80;1.00;;;;;;4995128;28;19917;-81